Time;durP1;ratioP1;P1;durP2;ratioP2;P2;SDS_P1;SDS_P2;PMS_P1;PMS_P2;Temp;Humidity;BMP_temperature;BMP_pressure;BME280_temperature;BME280_humidity;BME280_pressure;Samples;Min_cycle;Max_cycle;Signal;HPM_P1;HPM_P2
2023/12/19 00:00:17;;;;;;;29.70;12.13;;;;;;;;;;6263772;28;20041;-63
2023/12/19 00:03:38;;;;;;;38.90;13.15;;;;;;;;;;6262730;28;20114;-63
2023/12/19 00:06:38;;;;;;;30.17;13.77;;;;;;;;;;6261111;28;20491;-63
2023/12/19 00:09:40;;;;;;;29.52;11.90;;;;;;;;;;6263355;28;20140;-63
2023/12/19 00:12:41;;;;;;;29.98;11.98;;;;;;;;;;6263723;28;20053;-62
2023/12/19 00:15:42;;;;;;;28.55;12.55;;;;;;;;;;6262593;28;20408;-63
2023/12/19 00:18:43;;;;;;;30.75;13.13;;;;;;;;;;6263149;28;20040;-64
2023/12/19 00:21:44;;;;;;;36.78;13.25;;;;;;;;;;6263618;28;20044;-63
2023/12/19 00:24:44;;;;;;;34.92;12.90;;;;;;;;;;6265203;28;20068;-63
2023/12/19 00:27:45;;;;;;;29.35;13.05;;;;;;;;;;6261704;28;20415;-63
2023/12/19 00:30:45;;;;;;;28.85;12.40;;;;;;;;;;6260698;28;20041;-63
2023/12/19 00:33:46;;;;;;;31.40;12.68;;;;;;;;;;6261527;28;20056;-63
2023/12/19 00:36:47;;;;;;;27.00;11.75;;;;;;;;;;6258597;28;20495;-62
2023/12/19 00:39:48;;;;;;;29.88;12.25;;;;;;;;;;6261623;28;20071;-63
2023/12/19 00:42:48;;;;;;;28.40;11.70;;;;;;;;;;6261893;28;20045;-63
2023/12/19 00:45:49;;;;;;;30.30;11.77;;;;;;;;;;6262408;28;20056;-64
2023/12/19 00:48:49;;;;;;;26.13;11.25;;;;;;;;;;6262485;28;20095;-64
2023/12/19 00:51:50;;;;;;;32.22;12.50;;;;;;;;;;6263367;28;20057;-64
2023/12/19 00:54:51;;;;;;;25.25;10.90;;;;;;;;;;6262752;28;20037;-63
2023/12/19 00:57:51;;;;;;;29.15;11.38;;;;;;;;;;6261865;28;20099;-63
2023/12/19 01:00:52;;;;;;;26.95;10.73;;;;;;;;;;6267496;28;20052;-64
2023/12/19 01:03:53;;;;;;;25.05;10.45;;;;;;;;;;6265837;28;20049;-63
2023/12/19 01:06:53;;;;;;;26.05;10.63;;;;;;;;;;6261974;28;20033;-63
2023/12/19 01:09:54;;;;;;;27.70;11.20;;;;;;;;;;6266531;28;20041;-63
2023/12/19 01:12:55;;;;;;;25.38;10.50;;;;;;;;;;6266185;28;20041;-63
2023/12/19 01:15:56;;;;;;;22.67;9.80;;;;;;;;;;6265940;28;20190;-63
2023/12/19 01:18:56;;;;;;;25.60;10.38;;;;;;;;;;6266931;28;20047;-62
2023/12/19 01:21:58;;;;;;;20.42;9.88;;;;;;;;;;6268128;28;20146;-63
2023/12/19 01:24:58;;;;;;;26.27;10.23;;;;;;;;;;6267271;28;20419;-63
2023/12/19 01:27:59;;;;;;;21.35;9.43;;;;;;;;;;6267817;28;20079;-64
2023/12/19 01:31:00;;;;;;;21.38;9.63;;;;;;;;;;6267342;28;20048;-64
2023/12/19 01:34:01;;;;;;;23.92;10.35;;;;;;;;;;6265794;28;20119;-63
2023/12/19 01:37:01;;;;;;;18.65;9.52;;;;;;;;;;6264988;28;20057;-63
2023/12/19 01:40:04;;;;;;;20.85;9.32;;;;;;;;;;6267170;28;20075;-62
2023/12/19 01:43:16;;;;;;;21.90;9.05;;;;;;;;;;6265465;28;20055;-63
2023/12/19 01:46:17;;;;;;;;;;;;;;;;;;6266149;28;20408;-63
2023/12/19 01:49:18;;;;;;;23.55;9.52;;;;;;;;;;6264862;28;19920;-62
2023/12/19 01:52:19;;;;;;;22.05;9.32;;;;;;;;;;6266810;28;20503;-62
2023/12/19 01:55:21;;;;;;;19.33;8.23;;;;;;;;;;6268522;28;20400;-63
2023/12/19 01:58:22;;;;;;;;;;;;;;;;;;6264601;28;20045;-63
2023/12/19 02:01:22;;;;;;;21.13;9.52;;;;;;;;;;6266677;28;19932;-64
2023/12/19 02:04:24;;;;;;;21.00;8.73;;;;;;;;;;6266431;28;20451;-63
2023/12/19 02:07:24;;;;;;;17.10;8.00;;;;;;;;;;6265454;28;20048;-63
2023/12/19 02:10:27;;;;;;;18.13;8.13;;;;;;;;;;6263230;28;20140;-63
2023/12/19 02:13:28;;;;;;;19.67;8.70;;;;;;;;;;6265446;28;20072;-64
2023/12/19 02:16:28;;;;;;;20.58;8.43;;;;;;;;;;6264566;28;20408;-63
2023/12/19 02:19:29;;;;;;;20.30;8.88;;;;;;;;;;6264387;28;20067;-64
2023/12/19 02:22:30;;;;;;;19.80;8.07;;;;;;;;;;6263369;28;20111;-63
2023/12/19 02:25:31;;;;;;;18.65;7.80;;;;;;;;;;6266219;28;20102;-64
2023/12/19 02:28:32;;;;;;;19.25;8.23;;;;;;;;;;6264776;28;20041;-64
2023/12/19 02:31:32;;;;;;;19.70;8.95;;;;;;;;;;6264803;28;20491;-64
2023/12/19 02:34:33;;;;;;;21.98;8.52;;;;;;;;;;6264713;28;20051;-65
2023/12/19 02:37:34;;;;;;;20.73;9.27;;;;;;;;;;6264055;28;20037;-63
2023/12/19 02:40:34;;;;;;;18.17;7.82;;;;;;;;;;6266051;28;20454;-64
2023/12/19 02:43:35;;;;;;;20.55;7.88;;;;;;;;;;6265731;28;20056;-64
2023/12/19 02:46:36;;;;;;;17.80;8.25;;;;;;;;;;6263905;28;20648;-64
2023/12/19 02:49:36;;;;;;;17.58;8.32;;;;;;;;;;6264384;28;20484;-63
2023/12/19 02:52:37;;;;;;;17.85;8.07;;;;;;;;;;6265338;28;20467;-63
2023/12/19 02:55:39;;;;;;;18.98;7.35;;;;;;;;;;6264990;28;20041;-64
2023/12/19 02:58:40;;;;;;;15.25;8.02;;;;;;;;;;6262781;28;20086;-64
2023/12/19 03:01:47;;;;;;;15.93;7.50;;;;;;;;;;6265097;28;20049;-64
2023/12/19 03:04:48;;;;;;;15.98;7.18;;;;;;;;;;6262165;28;20484;-64
2023/12/19 03:07:49;;;;;;;17.35;6.97;;;;;;;;;;6262723;28;20048;-63
2023/12/19 03:10:50;;;;;;;14.45;6.45;;;;;;;;;;6264858;28;20033;-63
2023/12/19 03:13:50;;;;;;;14.27;7.10;;;;;;;;;;6264896;28;20056;-63
2023/12/19 03:16:51;;;;;;;16.40;6.70;;;;;;;;;;6264800;28;20045;-64
2023/12/19 03:19:53;;;;;;;13.98;6.60;;;;;;;;;;6262571;28;20411;-63
2023/12/19 03:22:54;;;;;;;14.98;6.63;;;;;;;;;;6264038;28;20057;-63
2023/12/19 03:25:54;;;;;;;13.77;6.35;;;;;;;;;;6264354;28;20049;-63
2023/12/19 03:28:55;;;;;;;11.60;5.68;;;;;;;;;;6263134;28;20049;-64
2023/12/19 03:31:55;;;;;;;13.45;5.95;;;;;;;;;;6264662;28;20507;-63
2023/12/19 03:34:56;;;;;;;12.07;5.68;;;;;;;;;;6264678;28;20041;-63
2023/12/19 03:37:57;;;;;;;16.90;5.80;;;;;;;;;;6258432;28;20052;-64
2023/12/19 03:41:00;;;;;;;13.23;5.20;;;;;;;;;;6261803;28;20521;-64
2023/12/19 03:44:00;;;;;;;11.18;5.78;;;;;;;;;;6261652;28;20527;-62
2023/12/19 03:47:01;;;;;;;13.88;5.78;;;;;;;;;;6265022;28;20131;-64
2023/12/19 03:50:02;;;;;;;14.60;5.55;;;;;;;;;;6263413;28;20480;-64
2023/12/19 03:53:03;;;;;;;12.38;5.07;;;;;;;;;;6262444;28;20052;-63
2023/12/19 03:56:04;;;;;;;11.25;5.55;;;;;;;;;;6262055;28;20396;-64
2023/12/19 03:59:08;;;;;;;9.07;4.75;;;;;;;;;;6262764;28;20075;-63
2023/12/19 04:02:08;;;;;;;10.13;5.07;;;;;;;;;;6254251;28;20052;-63
2023/12/19 04:05:09;;;;;;;12.93;4.97;;;;;;;;;;6262791;28;20079;-63
2023/12/19 04:08:10;;;;;;;13.30;5.72;;;;;;;;;;6261959;28;20553;-63
2023/12/19 04:11:11;;;;;;;10.25;4.60;;;;;;;;;;6263175;28;20041;-64
2023/12/19 04:14:11;;;;;;;12.27;4.95;;;;;;;;;;6262879;28;20053;-63
2023/12/19 04:17:13;;;;;;;10.27;4.80;;;;;;;;;;6262908;28;20041;-63
2023/12/19 04:20:14;;;;;;;10.57;4.60;;;;;;;;;;6261075;28;20045;-63
2023/12/19 04:23:15;;;;;;;13.00;4.45;;;;;;;;;;6261889;28;20037;-63
2023/12/19 04:26:19;;;;;;;8.65;4.63;;;;;;;;;;6263091;28;20087;-64
2023/12/19 04:29:20;;;;;;;9.93;4.80;;;;;;;;;;6260831;28;20124;-63
2023/12/19 04:32:21;;;;;;;10.32;4.85;;;;;;;;;;6263583;28;20056;-64
2023/12/19 04:35:21;;;;;;;10.95;4.72;;;;;;;;;;6266378;28;20414;-64
2023/12/19 04:38:22;;;;;;;11.40;4.60;;;;;;;;;;6266504;28;20041;-63
2023/12/19 04:41:23;;;;;;;11.18;4.50;;;;;;;;;;6268190;28;20140;-63
2023/12/19 04:44:23;;;;;;;9.73;4.50;;;;;;;;;;6270905;28;20548;-64
2023/12/19 04:47:24;;;;;;;12.65;6.03;;;;;;;;;;6265984;28;20091;-64
2023/12/19 04:50:25;;;;;;;20.27;7.30;;;;;;;;;;6265773;28;20408;-64
2023/12/19 04:53:27;;;;;;;16.65;6.72;;;;;;;;;;6267680;28;20068;-64
2023/12/19 04:56:28;;;;;;;;;;;;;;;;;;6272018;28;20053;-64
2023/12/19 04:59:30;;;;;;;12.27;5.65;;;;;;;;;;6267875;28;20807;-64
2023/12/19 05:02:31;;;;;;;9.13;4.53;;;;;;;;;;6268507;28;20077;-64
2023/12/19 05:05:32;;;;;;;13.30;5.20;;;;;;;;;;6268422;28;20046;-63
2023/12/19 05:08:32;;;;;;;11.68;4.97;;;;;;;;;;6269195;28;20416;-64
2023/12/19 05:11:34;;;;;;;12.02;5.32;;;;;;;;;;6271332;28;20041;-63
2023/12/19 05:14:34;;;;;;;11.60;5.88;;;;;;;;;;6271015;28;20515;-64
2023/12/19 05:17:35;;;;;;;10.30;5.00;;;;;;;;;;6270408;28;20045;-64
2023/12/19 05:20:36;;;;;;;10.88;4.72;;;;;;;;;;6270551;28;20041;-63
2023/12/19 05:23:38;;;;;;;11.65;5.30;;;;;;;;;;6269403;28;20136;-63
2023/12/19 05:26:38;;;;;;;11.43;5.13;;;;;;;;;;6270652;28;20048;-63
2023/12/19 05:29:40;;;;;;;13.57;5.22;;;;;;;;;;6268709;28;20095;-64
2023/12/19 05:32:40;;;;;;;12.68;5.55;;;;;;;;;;6271921;28;20063;-64
2023/12/19 05:35:41;;;;;;;12.48;5.30;;;;;;;;;;6270514;28;20045;-63
2023/12/19 05:38:42;;;;;;;13.32;5.05;;;;;;;;;;6267544;28;20139;-63
2023/12/19 05:41:43;;;;;;;11.60;5.13;;;;;;;;;;6269593;28;20126;-64
2023/12/19 05:44:44;;;;;;;12.43;4.60;;;;;;;;;;6271335;28;20052;-62
2023/12/19 05:47:44;;;;;;;12.27;4.75;;;;;;;;;;6262561;28;20045;-63
2023/12/19 05:50:45;;;;;;;10.50;4.55;;;;;;;;;;6265369;28;20453;-63
2023/12/19 05:53:46;;;;;;;12.93;4.65;;;;;;;;;;6265460;28;20056;-63
2023/12/19 05:56:47;;;;;;;9.32;4.80;;;;;;;;;;6266065;28;20053;-63
2023/12/19 05:59:48;;;;;;;12.77;5.93;;;;;;;;;;6264912;28;20560;-64
2023/12/19 06:02:50;;;;;;;12.43;5.57;;;;;;;;;;6264253;28;20041;-63
2023/12/19 06:05:50;;;;;;;10.95;4.85;;;;;;;;;;6263477;28;20473;-62
2023/12/19 06:08:51;;;;;;;11.00;5.28;;;;;;;;;;6249645;28;20046;-63
2023/12/19 06:11:52;;;;;;;10.77;5.03;;;;;;;;;;6263429;28;20052;-63
2023/12/19 06:14:53;;;;;;;10.93;4.57;;;;;;;;;;6266138;28;20539;-63
2023/12/19 06:17:53;;;;;;;10.07;4.80;;;;;;;;;;6264331;28;20037;-63
2023/12/19 06:20:54;;;;;;;9.18;4.35;;;;;;;;;;6263308;28;20447;-63
2023/12/19 06:23:55;;;;;;;12.48;4.40;;;;;;;;;;6264814;28;20649;-67
2023/12/19 06:26:55;;;;;;;10.20;4.80;;;;;;;;;;6264772;28;20411;-64
2023/12/19 06:29:56;;;;;;;11.88;4.75;;;;;;;;;;6263190;28;20488;-63
2023/12/19 06:32:57;;;;;;;9.88;4.30;;;;;;;;;;6265885;28;20073;-64
2023/12/19 06:35:58;;;;;;;13.50;5.20;;;;;;;;;;6265705;28;20055;-63
2023/12/19 06:38:58;;;;;;;12.15;5.05;;;;;;;;;;6263384;28;20057;-62
2023/12/19 06:41:59;;;;;;;9.57;4.40;;;;;;;;;;6265234;28;20041;-63
2023/12/19 06:45:00;;;;;;;12.60;4.68;;;;;;;;;;6264126;28;20774;-64
2023/12/19 06:48:02;;;;;;;13.35;5.95;;;;;;;;;;6263051;28;20139;-64
2023/12/19 06:51:03;;;;;;;14.67;4.70;;;;;;;;;;6264316;28;20037;-64
2023/12/19 06:54:04;;;;;;;11.70;4.65;;;;;;;;;;6265089;28;20124;-63
2023/12/19 06:57:05;;;;;;;11.55;4.90;;;;;;;;;;6264086;28;20045;-62
2023/12/19 07:00:06;;;;;;;11.13;4.77;;;;;;;;;;6263643;28;20040;-63
2023/12/19 07:03:07;;;;;;;10.50;4.82;;;;;;;;;;6265033;28;20695;-63
2023/12/19 07:06:08;;;;;;;12.93;4.53;;;;;;;;;;6266605;28;20047;-62
2023/12/19 07:09:08;;;;;;;10.73;4.63;;;;;;;;;;6264719;28;20040;-63
2023/12/19 07:12:09;;;;;;;9.55;4.20;;;;;;;;;;6265250;28;20072;-63
2023/12/19 07:15:10;;;;;;;11.82;4.35;;;;;;;;;;6255529;28;20496;-63
2023/12/19 07:18:11;;;;;;;9.82;4.63;;;;;;;;;;6264742;28;20087;-63
2023/12/19 07:21:24;;;;;;;9.95;4.65;;;;;;;;;;6265801;28;20400;-63
2023/12/19 07:24:25;;;;;;;8.18;4.70;;;;;;;;;;6262436;28;20056;-62
2023/12/19 07:27:26;;;;;;;10.20;4.78;;;;;;;;;;6262562;28;20053;-63
2023/12/19 07:30:27;;;;;;;12.60;5.35;;;;;;;;;;6263750;28;20045;-54
2023/12/19 07:33:27;;;;;;;11.63;5.20;;;;;;;;;;6259773;28;20066;-60
2023/12/19 07:36:28;;;;;;;18.75;6.35;;;;;;;;;;6257930;28;20448;-67
2023/12/19 07:39:30;;;;;;;23.20;8.15;;;;;;;;;;6243708;28;20079;-67
2023/12/19 07:42:32;;;;;;;11.38;4.53;;;;;;;;;;6252197;28;20045;-64
2023/12/19 07:45:32;;;;;;;12.43;4.75;;;;;;;;;;6265261;28;20053;-63
2023/12/19 07:48:33;;;;;;;11.70;4.50;;;;;;;;;;6264551;28;20068;-64
2023/12/19 07:51:34;;;;;;;10.90;4.30;;;;;;;;;;6251688;28;20053;-61
2023/12/19 07:54:36;;;;;;;9.82;4.22;;;;;;;;;;6264633;28;20075;-62
2023/12/19 07:57:39;;;;;;;11.50;4.07;;;;;;;;;;6248635;28;20040;-63
2023/12/19 08:00:40;;;;;;;14.65;4.95;;;;;;;;;;6254229;28;20305;-63
2023/12/19 08:03:44;;;;;;;13.35;4.60;;;;;;;;;;6265385;28;20397;-63
2023/12/19 08:06:45;;;;;;;9.40;4.20;;;;;;;;;;6252308;28;20147;-61
2023/12/19 08:09:45;;;;;;;9.75;4.20;;;;;;;;;;6262570;28;20049;-63
2023/12/19 08:12:46;;;;;;;9.88;4.30;;;;;;;;;;6265009;28;20068;-63
2023/12/19 08:15:48;;;;;;;8.05;3.95;;;;;;;;;;6263262;28;20079;-64
2023/12/19 08:18:50;;;;;;;10.05;4.00;;;;;;;;;;6263661;28;20127;-66
2023/12/19 08:21:52;;;;;;;10.73;4.20;;;;;;;;;;6243369;28;20389;-68
2023/12/19 08:24:55;;;;;;;9.63;4.18;;;;;;;;;;6259565;28;20127;-69
2023/12/19 08:27:56;;;;;;;13.10;4.07;;;;;;;;;;6264559;28;20041;-69
2023/12/19 08:30:56;;;;;;;9.40;4.10;;;;;;;;;;6263260;28;20545;-68
2023/12/19 08:33:57;;;;;;;9.02;4.00;;;;;;;;;;6259347;28;20041;-66
2023/12/19 08:36:59;;;;;;;10.20;4.13;;;;;;;;;;6264687;28;20053;-67
2023/12/19 08:40:03;;;;;;;9.82;4.35;;;;;;;;;;6249399;28;20072;-71
2023/12/19 08:43:04;;;;;;;10.77;3.90;;;;;;;;;;6264635;28;20500;-70
2023/12/19 08:46:04;;;;;;;9.20;3.50;;;;;;;;;;6263883;28;20140;-69
2023/12/19 08:49:05;;;;;;;9.27;3.75;;;;;;;;;;6263458;28;20127;-70
2023/12/19 08:52:06;;;;;;;8.90;3.80;;;;;;;;;;6263846;28;20049;-70
2023/12/19 08:55:11;;;;;;;11.20;4.07;;;;;;;;;;6264239;28;20394;-69
2023/12/19 08:58:12;;;;;;;11.20;3.85;;;;;;;;;;6262950;28;20064;-70
2023/12/19 09:01:13;;;;;;;8.05;3.67;;;;;;;;;;6261526;28;20092;-72
2023/12/19 09:04:14;;;;;;;7.93;3.50;;;;;;;;;;6264646;28;20638;-72
2023/12/19 09:07:15;;;;;;;8.45;3.25;;;;;;;;;;6262096;28;20488;-67
2023/12/19 09:10:16;;;;;;;9.05;3.72;;;;;;;;;;6262975;28;20041;-69
2023/12/19 09:13:17;;;;;;;7.10;3.50;;;;;;;;;;6263900;28;20061;-64
2023/12/19 09:16:19;;;;;;;9.18;4.10;;;;;;;;;;6262820;28;20056;-68
2023/12/19 09:19:19;;;;;;;8.35;3.25;;;;;;;;;;6262610;28;20136;-64
2023/12/19 09:22:20;;;;;;;7.35;3.90;;;;;;;;;;6268077;28;20045;-66
2023/12/19 09:25:21;;;;;;;8.45;3.38;;;;;;;;;;6269068;28;20047;-65
2023/12/19 09:28:23;;;;;;;7.05;3.17;;;;;;;;;;6268709;28;20429;-69
2023/12/19 09:31:24;;;;;;;9.95;3.88;;;;;;;;;;6267452;28;20565;-69
2023/12/19 09:34:25;;;;;;;7.70;3.33;;;;;;;;;;6268613;28;20060;-68
2023/12/19 09:37:28;;;;;;;8.00;3.85;;;;;;;;;;6268399;28;20130;-70
2023/12/19 09:40:29;;;;;;;7.43;3.47;;;;;;;;;;6267336;28;20044;-61
2023/12/19 09:43:33;;;;;;;7.32;3.80;;;;;;;;;;6268631;28;20127;-63
2023/12/19 09:46:34;;;;;;;8.32;3.78;;;;;;;;;;6268500;28;20044;-63
2023/12/19 09:49:39;;;;;;;9.00;4.00;;;;;;;;;;6267654;28;20049;-66
2023/12/19 09:52:41;;;;;;;8.30;3.40;;;;;;;;;;6263834;28;20041;-62
2023/12/19 09:55:44;;;;;;;8.13;3.47;;;;;;;;;;6268452;28;20053;-62
2023/12/19 09:58:44;;;;;;;7.38;3.65;;;;;;;;;;6267588;28;20111;-62
2023/12/19 10:01:46;;;;;;;9.48;3.33;;;;;;;;;;6266226;28;20057;-64
2023/12/19 10:04:47;;;;;;;8.30;3.43;;;;;;;;;;6267728;28;20049;-65
2023/12/19 10:07:48;;;;;;;7.38;3.22;;;;;;;;;;6267725;28;20059;-66
2023/12/19 10:10:56;;;;;;;9.18;3.40;;;;;;;;;;6266367;28;20087;-63
2023/12/19 10:14:10;;;;;;;7.90;3.75;;;;;;;;;;6267289;28;20045;-67
2023/12/19 10:17:14;;;;;;;6.90;3.25;;;;;;;;;;6264157;28;20549;-63
2023/12/19 10:20:16;;;;;;;10.80;3.30;;;;;;;;;;6257541;28;20136;-67
2023/12/19 10:23:21;;;;;;;6.97;3.37;;;;;;;;;;6262977;28;20133;-62
2023/12/19 10:26:28;;;;;;;6.65;3.10;;;;;;;;;;6266856;28;20077;-64
2023/12/19 10:29:36;;;;;;;6.43;3.17;;;;;;;;;;6267283;28;20033;-67
2023/12/19 10:32:37;;;;;;;8.10;3.22;;;;;;;;;;6254341;28;20436;-69
2023/12/19 10:35:38;;;;;;;9.07;3.67;;;;;;;;;;6250915;28;20449;-66
2023/12/19 10:38:46;;;;;;;9.02;3.50;;;;;;;;;;6255644;28;20144;-67
2023/12/19 10:41:47;;;;;;;8.98;3.58;;;;;;;;;;6263307;28;20120;-66
2023/12/19 10:44:48;;;;;;;8.85;3.80;;;;;;;;;;6262119;28;20504;-65
2023/12/19 10:47:49;;;;;;;7.93;3.60;;;;;;;;;;6264953;28;20464;-66
2023/12/19 10:50:50;;;;;;;8.70;3.65;;;;;;;;;;6265408;28;20520;-67
2023/12/19 10:54:15;;;;;;;7.38;3.28;;;;;;;;;;6261884;28;20059;-66
2023/12/19 10:57:17;;;;;;;10.65;3.35;;;;;;;;;;6264340;28;20541;-66
2023/12/19 11:00:22;;;;;;;11.85;3.70;;;;;;;;;;6264657;28;20511;-65
2023/12/19 11:03:39;;;;;;;7.90;3.45;;;;;;;;;;6263581;28;20045;-67
2023/12/19 11:06:46;;;;;;;5.70;3.35;;;;;;;;;;6263604;28;20124;-66
2023/12/19 11:09:55;;;;;;;7.10;3.50;;;;;;;;;;6263420;28;20452;-66
2023/12/19 11:12:55;;;;;;;7.13;3.35;;;;;;;;;;6262247;28;20055;-66
2023/12/19 11:16:12;;;;;;;6.50;2.90;;;;;;;;;;6264038;28;20048;-66
2023/12/19 11:19:21;;;;;;;9.15;3.08;;;;;;;;;;6252645;28;20106;-66
2023/12/19 11:23:04;;;;;;;7.90;3.05;;;;;;;;;;6263941;28;20060;-66
2023/12/19 11:26:34;;;;;;;8.68;3.25;;;;;;;;;;6191897;28;20069;-67
2023/12/19 11:29:56;;;;;;;6.53;2.88;;;;;;;;;;6253679;28;20052;-67
2023/12/19 11:32:57;;;;;;;6.45;2.58;;;;;;;;;;6262485;28;20052;-67
2023/12/19 11:36:11;;;;;;;5.50;2.42;;;;;;;;;;6264096;28;20052;-66
2023/12/19 11:39:22;;;;;;;6.57;2.45;;;;;;;;;;6263886;28;20052;-66
2023/12/19 11:42:49;;;;;;;7.13;2.87;;;;;;;;;;6264133;28;20045;-66
2023/12/19 11:45:50;;;;;;;5.40;2.40;;;;;;;;;;6258047;28;20053;-65
2023/12/19 11:48:52;;;;;;;6.07;2.85;;;;;;;;;;6259942;28;20059;-65
2023/12/19 11:51:55;;;;;;;6.05;3.13;;;;;;;;;;6263647;28;20051;-65
2023/12/19 11:54:56;;;;;;;5.55;2.42;;;;;;;;;;6263103;28;20052;-65
2023/12/19 11:58:08;;;;;;;8.13;3.50;;;;;;;;;;6262839;28;20035;-65
2023/12/19 12:01:08;;;;;;;8.27;3.20;;;;;;;;;;6264017;28;20610;-66
2023/12/19 12:04:10;;;;;;;5.82;2.58;;;;;;;;;;6261505;28;20158;-66
2023/12/19 12:07:11;;;;;;;6.87;2.87;;;;;;;;;;6261956;28;20474;-66
2023/12/19 12:10:13;;;;;;;6.80;2.97;;;;;;;;;;6262656;28;20143;-66
2023/12/19 12:13:14;;;;;;;10.30;3.35;;;;;;;;;;6261354;28;20055;-66
2023/12/19 12:16:15;;;;;;;9.57;3.58;;;;;;;;;;6260142;28;20476;-66
2023/12/19 12:19:18;;;;;;;8.93;3.53;;;;;;;;;;6262391;28;20060;-64
2023/12/19 12:22:20;;;;;;;5.68;2.45;;;;;;;;;;6261473;28;20413;-66
2023/12/19 12:25:22;;;;;;;7.05;2.78;;;;;;;;;;6261470;28;20120;-67
2023/12/19 12:28:28;;;;;;;8.23;2.70;;;;;;;;;;6262171;28;20532;-66
2023/12/19 12:31:29;;;;;;;6.38;2.60;;;;;;;;;;6262364;28;20053;-66
2023/12/19 12:34:33;;;;;;;5.43;2.87;;;;;;;;;;6259884;28;20052;-65
2023/12/19 12:37:33;;;;;;;6.93;2.90;;;;;;;;;;6261503;28;20045;-66
2023/12/19 12:40:34;;;;;;;8.35;3.20;;;;;;;;;;6262885;28;20477;-65
2023/12/19 12:43:39;;;;;;;7.03;2.90;;;;;;;;;;6262195;28;20041;-64
2023/12/19 12:46:43;;;;;;;7.65;2.92;;;;;;;;;;6262466;28;20140;-67
2023/12/19 12:49:44;;;;;;;6.28;2.88;;;;;;;;;;6261608;28;20068;-64
2023/12/19 12:52:45;;;;;;;6.28;3.38;;;;;;;;;;6256867;28;20760;-63
2023/12/19 12:55:46;;;;;;;5.75;2.67;;;;;;;;;;6243914;28;20053;-66
2023/12/19 12:58:46;;;;;;;7.97;3.30;;;;;;;;;;6238407;28;20081;-66
2023/12/19 13:01:47;;;;;;;6.03;2.80;;;;;;;;;;6244917;28;20112;-64
2023/12/19 13:04:48;;;;;;;8.73;3.78;;;;;;;;;;6241409;28;20056;-61
2023/12/19 13:07:48;;;;;;;6.75;2.65;;;;;;;;;;6261935;28;20043;-68
2023/12/19 13:10:49;;;;;;;10.00;2.88;;;;;;;;;;6261721;28;20042;-67
2023/12/19 13:13:50;;;;;;;5.60;2.20;;;;;;;;;;6267335;28;20049;-66
2023/12/19 13:16:51;;;;;;;4.80;2.33;;;;;;;;;;6254536;28;20103;-65
2023/12/19 13:19:52;;;;;;;5.63;2.50;;;;;;;;;;6250000;28;20100;-63
2023/12/19 13:22:56;;;;;;;5.90;2.70;;;;;;;;;;6247563;28;20400;-64
2023/12/19 13:25:57;;;;;;;5.05;2.28;;;;;;;;;;6245806;28;20546;-64
2023/12/19 13:29:02;;;;;;;7.78;2.67;;;;;;;;;;6241481;28;20065;-65
2023/12/19 13:32:03;;;;;;;5.35;2.22;;;;;;;;;;6242356;28;20054;-65
2023/12/19 13:35:06;;;;;;;6.25;2.53;;;;;;;;;;6239656;28;20049;-64
2023/12/19 13:38:08;;;;;;;6.00;2.17;;;;;;;;;;6243512;28;20073;-65
2023/12/19 13:41:10;;;;;;;6.32;3.03;;;;;;;;;;6244427;28;20133;-64
2023/12/19 13:44:10;;;;;;;5.93;2.35;;;;;;;;;;6237570;28;20547;-64
2023/12/19 13:47:11;;;;;;;8.10;2.45;;;;;;;;;;6241300;28;20085;-64
2023/12/19 13:50:12;;;;;;;7.65;2.38;;;;;;;;;;6239540;28;20606;-65
2023/12/19 13:53:13;;;;;;;6.80;2.37;;;;;;;;;;6245849;28;20602;-64
2023/12/19 13:56:13;;;;;;;7.15;2.40;;;;;;;;;;6241738;28;20282;-64
2023/12/19 13:59:14;;;;;;;7.13;2.40;;;;;;;;;;6244200;28;20080;-65
2023/12/19 14:02:18;;;;;;;6.65;2.47;;;;;;;;;;6242544;28;20500;-64
2023/12/19 14:05:18;;;;;;;7.63;3.00;;;;;;;;;;6245481;28;20045;-65
2023/12/19 14:08:19;;;;;;;10.07;3.20;;;;;;;;;;6240813;28;20052;-64
2023/12/19 14:11:20;;;;;;;5.33;2.63;;;;;;;;;;6240572;28;20053;-65
2023/12/19 14:14:21;;;;;;;6.50;2.40;;;;;;;;;;6242195;28;20061;-65
2023/12/19 14:17:22;;;;;;;5.80;2.47;;;;;;;;;;6241959;28;20495;-65
2023/12/19 14:20:22;;;;;;;8.40;3.55;;;;;;;;;;6241379;28;20045;-65
2023/12/19 14:23:24;;;;;;;5.95;2.60;;;;;;;;;;6243424;28;20404;-65
2023/12/19 14:26:25;;;;;;;6.65;2.53;;;;;;;;;;6244558;28;20041;-65
2023/12/19 14:29:26;;;;;;;5.75;2.50;;;;;;;;;;6239743;28;20037;-65
2023/12/19 14:32:27;;;;;;;6.35;2.67;;;;;;;;;;6242293;28;20408;-65
2023/12/19 14:35:28;;;;;;;5.75;2.60;;;;;;;;;;6247414;28;20697;-64
2023/12/19 14:38:29;;;;;;;7.03;3.40;;;;;;;;;;6242266;28;20049;-65
2023/12/19 14:41:30;;;;;;;6.50;3.15;;;;;;;;;;6243098;28;20124;-64
2023/12/19 14:44:31;;;;;;;7.47;2.90;;;;;;;;;;6243982;28;20048;-65
2023/12/19 14:47:32;;;;;;;9.75;4.20;;;;;;;;;;6243330;28;20128;-65
2023/12/19 14:50:32;;;;;;;8.10;3.05;;;;;;;;;;6248188;28;20057;-64
2023/12/19 14:53:33;;;;;;;6.85;2.92;;;;;;;;;;6241592;28;20049;-64
2023/12/19 14:56:34;;;;;;;6.80;2.72;;;;;;;;;;6242750;28;20574;-65
2023/12/19 14:59:34;;;;;;;7.07;2.53;;;;;;;;;;6238395;28;20197;-65
2023/12/19 15:02:35;;;;;;;9.30;3.55;;;;;;;;;;6240810;28;20057;-65
2023/12/19 15:05:36;;;;;;;9.75;3.50;;;;;;;;;;6242591;28;20140;-65
2023/12/19 15:08:37;;;;;;;9.85;4.18;;;;;;;;;;6236647;28;20045;-64
2023/12/19 15:11:37;;;;;;;7.15;2.92;;;;;;;;;;6241251;28;20053;-65
2023/12/19 15:14:38;;;;;;;11.80;3.53;;;;;;;;;;6244169;28;20061;-65
2023/12/19 15:17:39;;;;;;;10.13;3.40;;;;;;;;;;6238714;28;20064;-65
2023/12/19 15:20:39;;;;;;;7.50;2.92;;;;;;;;;;6244005;28;20444;-64
2023/12/19 15:23:40;;;;;;;9.82;3.20;;;;;;;;;;6240808;28;20049;-65
2023/12/19 15:26:42;;;;;;;7.57;3.20;;;;;;;;;;6241922;28;20436;-65
2023/12/19 15:29:43;;;;;;;8.32;3.13;;;;;;;;;;6241698;28;20053;-64
2023/12/19 15:32:43;;;;;;;6.95;2.67;;;;;;;;;;6246491;28;20060;-66
2023/12/19 15:35:45;;;;;;;6.22;2.72;;;;;;;;;;6242626;28;20064;-68
2023/12/19 15:38:46;;;;;;;9.77;4.30;;;;;;;;;;6239188;28;20053;-68
2023/12/19 15:41:47;;;;;;;11.18;5.72;;;;;;;;;;6243637;28;20041;-68
2023/12/19 15:44:49;;;;;;;7.68;3.13;;;;;;;;;;6240910;28;20427;-67
2023/12/19 15:47:50;;;;;;;7.93;3.30;;;;;;;;;;6242863;28;20037;-67
2023/12/19 15:50:50;;;;;;;7.60;2.95;;;;;;;;;;6239840;28;20044;-67
2023/12/19 15:53:51;;;;;;;7.43;2.80;;;;;;;;;;6242284;28;20056;-68
2023/12/19 15:56:52;;;;;;;11.05;3.40;;;;;;;;;;6241468;28;20049;-67
2023/12/19 15:59:53;;;;;;;9.10;3.75;;;;;;;;;;6242660;28;20523;-67
2023/12/19 16:02:53;;;;;;;8.40;3.15;;;;;;;;;;6240683;28;20565;-67
2023/12/19 16:05:56;;;;;;;7.70;3.10;;;;;;;;;;6242535;28;20053;-68
2023/12/19 16:08:56;;;;;;;7.60;3.47;;;;;;;;;;6232027;28;20606;-68
2023/12/19 16:11:57;;;;;;;8.05;3.78;;;;;;;;;;6241295;28;20053;-68
2023/12/19 16:14:59;;;;;;;8.75;3.20;;;;;;;;;;6229835;28;20049;-66
2023/12/19 16:17:59;;;;;;;10.03;3.90;;;;;;;;;;6236190;28;20143;-68
2023/12/19 16:21:02;;;;;;;7.45;3.50;;;;;;;;;;6235644;28;20069;-68
2023/12/19 16:24:04;;;;;;;10.45;3.30;;;;;;;;;;6245360;28;20045;-68
2023/12/19 16:27:04;;;;;;;12.43;3.72;;;;;;;;;;6241724;28;20061;-67
2023/12/19 16:30:06;;;;;;;8.55;3.25;;;;;;;;;;6241138;28;20520;-65
2023/12/19 16:33:07;;;;;;;8.48;3.30;;;;;;;;;;6243962;28;20033;-66
2023/12/19 16:36:11;;;;;;;10.05;3.28;;;;;;;;;;6239494;28;20499;-68
2023/12/19 16:39:12;;;;;;;9.18;2.97;;;;;;;;;;6241793;28;20052;-70
2023/12/19 16:42:14;;;;;;;10.50;4.65;;;;;;;;;;6241983;28;20049;-68
2023/12/19 16:45:15;;;;;;;8.80;3.90;;;;;;;;;;6240789;28;20144;-68
2023/12/19 16:48:16;;;;;;;8.07;3.45;;;;;;;;;;6239232;28;20632;-65
2023/12/19 16:51:16;;;;;;;9.50;3.65;;;;;;;;;;6237771;28;20053;-69
2023/12/19 16:54:17;;;;;;;8.15;3.60;;;;;;;;;;6242761;28;20049;-67
2023/12/19 16:57:18;;;;;;;8.40;3.50;;;;;;;;;;6241056;28;20072;-67
2023/12/19 17:00:19;;;;;;;7.40;3.50;;;;;;;;;;6237597;28;20065;-67
2023/12/19 17:03:20;;;;;;;8.15;3.53;;;;;;;;;;6247616;28;20049;-67
2023/12/19 17:06:25;;;;;;;9.68;4.07;;;;;;;;;;6240310;28;20049;-68
2023/12/19 17:09:26;;;;;;;8.38;4.00;;;;;;;;;;6238266;28;20136;-68
2023/12/19 17:12:27;;;;;;;8.30;3.72;;;;;;;;;;6236691;28;20184;-72
2023/12/19 17:15:28;;;;;;;6.78;3.05;;;;;;;;;;6239023;28;20065;-65
2023/12/19 17:18:30;;;;;;;9.00;3.90;;;;;;;;;;6244332;28;20496;-66
2023/12/19 17:21:31;;;;;;;9.68;3.50;;;;;;;;;;6238425;28;20487;-65
2023/12/19 17:24:32;;;;;;;11.07;4.03;;;;;;;;;;6245214;28;20063;-68
2023/12/19 17:27:34;;;;;;;12.02;4.28;;;;;;;;;;6241482;28;20441;-67
2023/12/19 17:30:35;;;;;;;7.63;3.97;;;;;;;;;;6240079;28;20057;-72
2023/12/19 17:33:54;;;;;;;9.57;3.55;;;;;;;;;;6239959;28;20053;-71
2023/12/19 17:36:54;;;;;;;10.77;4.45;;;;;;;;;;6243297;28;20054;-66
2023/12/19 17:39:56;;;;;;;7.82;3.42;;;;;;;;;;6238760;28;20107;-67
2023/12/19 17:42:56;;;;;;;7.50;3.37;;;;;;;;;;6247882;28;20147;-68
2023/12/19 17:45:57;;;;;;;7.50;3.53;;;;;;;;;;6257117;28;20107;-68
2023/12/19 17:48:58;;;;;;;8.77;3.53;;;;;;;;;;6247397;28;20045;-66
2023/12/19 17:51:58;;;;;;;8.43;3.83;;;;;;;;;;6241548;28;20049;-68
2023/12/19 17:54:59;;;;;;;8.38;3.45;;;;;;;;;;6243341;28;20155;-71
2023/12/19 17:58:00;;;;;;;11.75;4.03;;;;;;;;;;6243851;28;20053;-70
2023/12/19 18:01:01;;;;;;;9.25;3.60;;;;;;;;;;6243293;28;20179;-65